EJU19QK LDSP-EHAM
Flight info
| Callsign | EJU19QK |
|---|---|
| Flight time | 2h 5m |
| Altitude | 38000 |
| Route | ZDA DCT ROPUS DCT RASTA DCT SIMBA DCT GASKA DCT MAPOX DCT NORKU |
| Aircraft | A319/M-SDE3FGHIRWY/LB1 |
Departure
| Time | 2026-04-30 12:00 |
|---|---|
| Airport | Split Saint Jerome Airport (LDSP) |
Arrival
| Time | 2026-04-30 14:06 |
|---|---|
| Airport | Amsterdam Airport Schiphol (EHAM) |
| Time | Latitude | Longitude | Altitude | Speed | Heading |
|---|---|---|---|---|---|
| 2026-04-30 11:19 | 43.53796 | 16.30004 | 68 ft | 0 kts | 115° |
| 2026-04-30 11:53 | 43.53799 | 16.30009 | 68 ft | 1 kts | 66° |
| 2026-04-30 11:53 | 43.53818 | 16.30001 | 62 ft | 5 kts | 316° |
| 2026-04-30 11:54 | 43.53820 | 16.29941 | 62 ft | 8 kts | 271° |
| 2026-04-30 11:54 | 43.53800 | 16.29867 | 68 ft | 9 kts | 232° |
| 2026-04-30 11:54 | 43.53757 | 16.29791 | 64 ft | 11 kts | 232° |
| 2026-04-30 11:54 | 43.53707 | 16.29701 | 66 ft | 9 kts | 233° |
| 2026-04-30 11:55 | 43.53694 | 16.29677 | 68 ft | 4 kts | 232° |
| 2026-04-30 11:55 | 43.53672 | 16.29619 | 68 ft | 5 kts | 260° |
| 2026-04-30 11:55 | 43.53672 | 16.29611 | 68 ft | 0 kts | 268° |
| 2026-04-30 11:56 | 43.53680 | 16.29584 | 67 ft | 6 kts | 310° |
| 2026-04-30 11:57 | 43.53699 | 16.29535 | 77 ft | 7 kts | 278° |
| 2026-04-30 11:57 | 43.53686 | 16.29434 | 81 ft | 15 kts | 248° |
| 2026-04-30 11:57 | 43.53623 | 16.29306 | 81 ft | 17 kts | 232° |
| 2026-04-30 11:57 | 43.53537 | 16.29151 | 81 ft | 22 kts | 232° |
| 2026-04-30 11:58 | 43.53443 | 16.28983 | 82 ft | 22 kts | 232° |
| 2026-04-30 11:58 | 43.53350 | 16.28815 | 81 ft | 21 kts | 232° |
| 2026-04-30 11:58 | 43.53276 | 16.28681 | 81 ft | 16 kts | 233° |
| 2026-04-30 11:58 | 43.53223 | 16.28619 | 76 ft | 8 kts | 191° |
| 2026-04-30 11:59 | 43.53205 | 16.28587 | 74 ft | 3 kts | 296° |
| 2026-04-30 11:59 | 43.53221 | 16.28585 | 75 ft | 2 kts | 30° |
| 2026-04-30 11:59 | 43.53229 | 16.28599 | 70 ft | 3 kts | 50° |
| 2026-04-30 11:59 | 43.53327 | 16.28770 | 82 ft | 57 kts | 52° |
| 2026-04-30 12:00 | 43.53716 | 16.29472 | 83 ft | 124 kts | 52° |
| 2026-04-30 12:00 | 43.54298 | 16.30529 | 486 ft | 140 kts | 50° |
| 2026-04-30 12:00 | 43.54884 | 16.31578 | 1315 ft | 138 kts | 51° |
| 2026-04-30 12:00 | 43.55451 | 16.32648 | 2103 ft | 139 kts | 62° |
| 2026-04-30 12:01 | 43.55684 | 16.33942 | 2934 ft | 143 kts | 85° |
| 2026-04-30 12:01 | 43.55426 | 16.35396 | 3464 ft | 174 kts | 113° |
| 2026-04-30 12:01 | 43.54500 | 16.36594 | 3962 ft | 196 kts | 148° |
| 2026-04-30 12:01 | 43.53126 | 16.37006 | 4492 ft | 206 kts | 166° |
| 2026-04-30 12:02 | 43.51792 | 16.37627 | 4944 ft | 203 kts | 148° |
| 2026-04-30 12:02 | 43.50530 | 16.38481 | 5004 ft | 200 kts | 146° |
| 2026-04-30 12:02 | 43.49290 | 16.39363 | 5015 ft | 200 kts | 146° |
| 2026-04-30 12:02 | 43.48058 | 16.40258 | 5014 ft | 200 kts | 145° |
| 2026-04-30 12:03 | 43.46720 | 16.40893 | 5121 ft | 215 kts | 173° |
| 2026-04-30 12:03 | 43.44090 | 16.38729 | 6141 ft | 247 kts | 234° |
| 2026-04-30 12:03 | 43.43035 | 16.36820 | 6943 ft | 252 kts | 236° |
| 2026-04-30 12:04 | 43.42335 | 16.35535 | 7482 ft | 256 kts | 236° |
| 2026-04-30 12:04 | 43.41244 | 16.33535 | 8305 ft | 261 kts | 235° |
| 2026-04-30 12:04 | 43.40152 | 16.31549 | 9102 ft | 266 kts | 235° |
| 2026-04-30 12:04 | 43.39035 | 16.29496 | 9993 ft | 270 kts | 238° |
| 2026-04-30 12:05 | 43.38317 | 16.27126 | 10795 ft | 269 kts | 264° |
| 2026-04-30 12:05 | 43.38377 | 16.24603 | 11620 ft | 262 kts | 290° |
| 2026-04-30 12:05 | 43.39166 | 16.22395 | 12490 ft | 256 kts | 313° |
| 2026-04-30 12:05 | 43.40454 | 16.20711 | 13258 ft | 261 kts | 323° |
| 2026-04-30 12:06 | 43.41890 | 16.19017 | 13563 ft | 284 kts | 322° |
| 2026-04-30 12:06 | 43.43449 | 16.17168 | 13808 ft | 308 kts | 322° |
| 2026-04-30 12:06 | 43.45115 | 16.15176 | 14251 ft | 323 kts | 321° |
| 2026-04-30 12:06 | 43.46822 | 16.13123 | 14936 ft | 328 kts | 321° |
| 2026-04-30 12:07 | 43.48546 | 16.11039 | 15660 ft | 331 kts | 321° |
| 2026-04-30 12:07 | 43.50285 | 16.08928 | 16403 ft | 334 kts | 320° |
| 2026-04-30 12:07 | 43.52035 | 16.06804 | 17136 ft | 337 kts | 320° |
| 2026-04-30 12:07 | 43.53799 | 16.04665 | 17852 ft | 340 kts | 320° |
| 2026-04-30 12:08 | 43.55586 | 16.02504 | 18545 ft | 343 kts | 320° |
| 2026-04-30 12:08 | 43.57384 | 16.00329 | 19167 ft | 345 kts | 320° |
| 2026-04-30 12:08 | 43.59199 | 15.98132 | 19806 ft | 348 kts | 320° |
| 2026-04-30 12:08 | 43.61024 | 15.95922 | 20451 ft | 350 kts | 320° |
| 2026-04-30 12:09 | 43.62858 | 15.93703 | 21095 ft | 352 kts | 319° |
| 2026-04-30 12:09 | 43.64708 | 15.91460 | 21738 ft | 354 kts | 319° |
| 2026-04-30 12:09 | 43.66562 | 15.89204 | 22362 ft | 357 kts | 319° |
| 2026-04-30 12:09 | 43.68435 | 15.86924 | 22981 ft | 359 kts | 319° |
| 2026-04-30 12:10 | 43.70315 | 15.84634 | 23585 ft | 362 kts | 319° |
| 2026-04-30 12:10 | 43.72214 | 15.82319 | 24117 ft | 365 kts | 318° |
| 2026-04-30 12:10 | 43.74119 | 15.79994 | 24620 ft | 367 kts | 318° |
| 2026-04-30 12:10 | 43.76037 | 15.77650 | 25125 ft | 369 kts | 318° |
| 2026-04-30 12:11 | 43.77965 | 15.75292 | 25630 ft | 370 kts | 318° |
| 2026-04-30 12:11 | 43.79904 | 15.72924 | 26119 ft | 373 kts | 318° |
| 2026-04-30 12:11 | 43.81825 | 15.70578 | 26596 ft | 374 kts | 317° |
| 2026-04-30 12:11 | 43.83783 | 15.68182 | 27067 ft | 376 kts | 317° |
| 2026-04-30 12:12 | 43.85747 | 15.65771 | 27535 ft | 379 kts | 317° |
| 2026-04-30 12:12 | 43.87725 | 15.63340 | 27988 ft | 381 kts | 317° |
| 2026-04-30 12:12 | 43.89711 | 15.60896 | 28467 ft | 383 kts | 317° |
| 2026-04-30 12:12 | 43.91711 | 15.58439 | 28931 ft | 385 kts | 317° |
| 2026-04-30 12:13 | 43.93720 | 15.55968 | 29396 ft | 387 kts | 317° |
| 2026-04-30 12:13 | 43.95740 | 15.53486 | 29839 ft | 389 kts | 317° |
| 2026-04-30 12:13 | 43.97770 | 15.50991 | 30283 ft | 391 kts | 317° |
| 2026-04-30 12:13 | 43.99807 | 15.48481 | 30643 ft | 393 kts | 317° |
| 2026-04-30 12:14 | 44.01855 | 15.45954 | 30984 ft | 395 kts | 317° |
| 2026-04-30 12:14 | 44.03913 | 15.43409 | 31309 ft | 397 kts | 317° |
| 2026-04-30 12:14 | 44.05983 | 15.40844 | 31628 ft | 399 kts | 317° |
| 2026-04-30 12:14 | 44.08056 | 15.38273 | 32016 ft | 399 kts | 317° |
| 2026-04-30 12:15 | 44.10322 | 15.36045 | 32446 ft | 402 kts | 330° |
| 2026-04-30 12:15 | 44.12899 | 15.34497 | 32885 ft | 403 kts | 334° |
| 2026-04-30 12:15 | 44.15494 | 15.33030 | 33325 ft | 402 kts | 335° |
| 2026-04-30 12:15 | 44.18088 | 15.31573 | 33751 ft | 402 kts | 334° |
| 2026-04-30 12:16 | 44.20674 | 15.30116 | 34194 ft | 401 kts | 334° |
| 2026-04-30 12:16 | 44.23260 | 15.28652 | 34536 ft | 401 kts | 334° |
| 2026-04-30 12:16 | 44.25846 | 15.27183 | 34840 ft | 401 kts | 335° |
| 2026-04-30 12:16 | 44.28432 | 15.25710 | 35112 ft | 402 kts | 335° |
| 2026-04-30 12:17 | 44.33626 | 15.22745 | 35638 ft | 404 kts | 335° |
| 2026-04-30 12:17 | 44.36229 | 15.21256 | 35912 ft | 405 kts | 335° |
| 2026-04-30 12:17 | 44.38844 | 15.19760 | 36067 ft | 408 kts | 335° |
| 2026-04-30 12:18 | 44.41482 | 15.18252 | 36216 ft | 411 kts | 335° |
| 2026-04-30 12:18 | 44.44127 | 15.16742 | 36258 ft | 407 kts | 335° |
| 2026-04-30 12:18 | 44.49354 | 15.13742 | 36265 ft | 405 kts | 335° |
| 2026-04-30 12:19 | 44.54571 | 15.10741 | 36270 ft | 405 kts | 335° |
| 2026-04-30 12:19 | 44.59784 | 15.07739 | 36270 ft | 405 kts | 336° |
| 2026-04-30 12:20 | 44.65007 | 15.04729 | 36271 ft | 405 kts | 336° |
| 2026-04-30 12:20 | 44.70225 | 15.01715 | 36280 ft | 406 kts | 336° |
| 2026-04-30 12:21 | 44.75449 | 14.98693 | 36280 ft | 406 kts | 336° |
| 2026-04-30 12:21 | 44.80666 | 14.95661 | 36290 ft | 406 kts | 336° |
| 2026-04-30 12:22 | 44.85880 | 14.92632 | 36297 ft | 405 kts | 336° |
| 2026-04-30 12:22 | 44.91080 | 14.89618 | 36308 ft | 403 kts | 336° |
| 2026-04-30 12:23 | 44.96263 | 14.86595 | 36306 ft | 403 kts | 336° |
| 2026-04-30 12:23 | 45.01445 | 14.83558 | 36301 ft | 403 kts | 336° |
| 2026-04-30 12:24 | 45.06634 | 14.80517 | 36298 ft | 403 kts | 336° |
| 2026-04-30 12:24 | 45.11821 | 14.77473 | 36300 ft | 403 kts | 336° |
| 2026-04-30 12:25 | 45.17008 | 14.74424 | 36297 ft | 404 kts | 336° |
| 2026-04-30 12:25 | 45.22196 | 14.71371 | 36297 ft | 404 kts | 336° |
| 2026-04-30 12:26 | 45.27381 | 14.68305 | 36298 ft | 404 kts | 336° |
| 2026-04-30 12:26 | 45.32566 | 14.65233 | 36304 ft | 403 kts | 336° |
| 2026-04-30 12:27 | 45.37744 | 14.62165 | 36311 ft | 403 kts | 336° |
| 2026-04-30 12:27 | 45.42919 | 14.59098 | 36313 ft | 403 kts | 336° |
| 2026-04-30 12:28 | 45.48092 | 14.56019 | 36311 ft | 403 kts | 337° |
| 2026-04-30 12:28 | 45.53266 | 14.52924 | 36309 ft | 404 kts | 337° |
| 2026-04-30 12:29 | 45.58449 | 14.49830 | 36314 ft | 404 kts | 337° |
| 2026-04-30 12:29 | 45.63639 | 14.46723 | 36310 ft | 404 kts | 337° |
| 2026-04-30 12:30 | 45.68825 | 14.43610 | 36313 ft | 405 kts | 337° |
| 2026-04-30 12:30 | 45.74023 | 14.40488 | 36312 ft | 405 kts | 337° |
| 2026-04-30 12:31 | 45.79217 | 14.37363 | 36310 ft | 405 kts | 337° |
| 2026-04-30 12:31 | 45.84415 | 14.34218 | 36309 ft | 405 kts | 337° |
| 2026-04-30 12:32 | 45.89618 | 14.31066 | 36312 ft | 406 kts | 337° |
| 2026-04-30 12:32 | 45.94824 | 14.27919 | 36317 ft | 406 kts | 337° |
| 2026-04-30 12:33 | 46.00035 | 14.24757 | 36320 ft | 407 kts | 338° |
| 2026-04-30 12:33 | 46.05250 | 14.21574 | 36322 ft | 407 kts | 338° |
| 2026-04-30 12:34 | 46.10474 | 14.18398 | 36323 ft | 407 kts | 338° |
| 2026-04-30 12:34 | 46.15746 | 14.15398 | 36321 ft | 407 kts | 340° |
| 2026-04-30 12:35 | 46.21028 | 14.12491 | 36321 ft | 408 kts | 340° |
| 2026-04-30 12:35 | 46.26335 | 14.09535 | 36321 ft | 409 kts | 340° |
| 2026-04-30 12:36 | 46.31629 | 14.06537 | 36320 ft | 409 kts | 340° |
| 2026-04-30 12:36 | 46.36920 | 14.03531 | 36318 ft | 408 kts | 340° |
| 2026-04-30 12:37 | 46.42206 | 14.00531 | 36314 ft | 408 kts | 340° |
| 2026-04-30 12:37 | 46.47492 | 13.97528 | 36320 ft | 408 kts | 340° |
| 2026-04-30 12:38 | 46.52778 | 13.94510 | 36318 ft | 408 kts | 340° |
| 2026-04-30 12:38 | 46.58054 | 13.91484 | 36313 ft | 407 kts | 340° |
| 2026-04-30 12:39 | 46.63327 | 13.88457 | 36307 ft | 407 kts | 340° |
| 2026-04-30 12:39 | 46.68595 | 13.85426 | 36301 ft | 407 kts | 340° |
| 2026-04-30 12:40 | 46.73861 | 13.82400 | 36293 ft | 407 kts | 341° |
| 2026-04-30 12:40 | 46.79132 | 13.79369 | 36296 ft | 407 kts | 341° |
| 2026-04-30 12:41 | 46.84393 | 13.76327 | 36290 ft | 407 kts | 341° |
| 2026-04-30 12:41 | 46.89652 | 13.73285 | 36288 ft | 407 kts | 341° |
| 2026-04-30 12:42 | 46.94910 | 13.70234 | 36289 ft | 406 kts | 341° |
| 2026-04-30 12:42 | 47.00163 | 13.67182 | 36287 ft | 406 kts | 341° |
| 2026-04-30 12:43 | 47.05410 | 13.64124 | 36281 ft | 406 kts | 341° |
| 2026-04-30 12:43 | 47.09770 | 13.61579 | 36284 ft | 406 kts | 341° |
| 2026-04-30 12:44 | 47.15019 | 13.58515 | 36285 ft | 406 kts | 341° |
| 2026-04-30 12:44 | 47.20267 | 13.55439 | 36291 ft | 406 kts | 341° |
| 2026-04-30 12:45 | 47.25502 | 13.52351 | 36293 ft | 405 kts | 341° |
| 2026-04-30 12:45 | 47.30736 | 13.49271 | 36292 ft | 405 kts | 341° |
| 2026-04-30 12:46 | 47.35972 | 13.46189 | 36297 ft | 405 kts | 342° |
| 2026-04-30 12:46 | 47.41203 | 13.43098 | 36296 ft | 404 kts | 342° |
| 2026-04-30 12:47 | 47.46426 | 13.40001 | 36300 ft | 405 kts | 342° |
| 2026-04-30 12:47 | 47.51667 | 13.36960 | 36305 ft | 403 kts | 344° |
| 2026-04-30 12:48 | 47.56986 | 13.34334 | 36326 ft | 403 kts | 346° |
| 2026-04-30 12:48 | 47.62329 | 13.31829 | 36332 ft | 402 kts | 346° |
| 2026-04-30 12:49 | 47.67655 | 13.29257 | 36336 ft | 402 kts | 345° |
| 2026-04-30 12:49 | 47.72970 | 13.26624 | 36341 ft | 403 kts | 346° |
| 2026-04-30 12:50 | 47.78272 | 13.23977 | 36341 ft | 402 kts | 346° |
| 2026-04-30 12:50 | 47.83574 | 13.21338 | 36338 ft | 401 kts | 346° |
| 2026-04-30 12:51 | 47.88872 | 13.18708 | 36340 ft | 401 kts | 346° |
| 2026-04-30 12:51 | 47.94167 | 13.16076 | 36346 ft | 401 kts | 346° |
| 2026-04-30 12:52 | 47.99465 | 13.13432 | 36351 ft | 401 kts | 346° |
| 2026-04-30 12:52 | 48.04759 | 13.10775 | 36363 ft | 401 kts | 346° |
| 2026-04-30 12:53 | 48.10052 | 13.08117 | 36369 ft | 401 kts | 346° |
| 2026-04-30 12:53 | 48.15341 | 13.05459 | 36377 ft | 401 kts | 347° |
| 2026-04-30 12:54 | 48.20626 | 13.02784 | 36380 ft | 401 kts | 345° |
| 2026-04-30 12:54 | 48.25522 | 12.98556 | 36389 ft | 415 kts | 327° |
| 2026-04-30 12:55 | 48.29989 | 12.93075 | 36395 ft | 415 kts | 327° |
| 2026-04-30 12:55 | 48.34476 | 12.87588 | 36395 ft | 415 kts | 327° |
| 2026-04-30 12:56 | 48.38958 | 12.82107 | 36392 ft | 415 kts | 327° |
| 2026-04-30 12:56 | 48.43430 | 12.76614 | 36387 ft | 415 kts | 327° |
| 2026-04-30 12:57 | 48.47893 | 12.71107 | 36386 ft | 415 kts | 327° |
| 2026-04-30 12:57 | 48.52357 | 12.65599 | 36384 ft | 415 kts | 327° |
| 2026-04-30 12:58 | 48.56825 | 12.60076 | 36385 ft | 415 kts | 327° |
| 2026-04-30 12:58 | 48.61286 | 12.54536 | 36386 ft | 415 kts | 327° |
| 2026-04-30 12:59 | 48.65742 | 12.48982 | 36387 ft | 415 kts | 327° |
| 2026-04-30 12:59 | 48.70203 | 12.43428 | 36385 ft | 415 kts | 327° |
| 2026-04-30 13:00 | 48.74638 | 12.37884 | 36386 ft | 416 kts | 327° |
| 2026-04-30 13:00 | 48.79098 | 12.32305 | 36393 ft | 416 kts | 327° |
| 2026-04-30 13:01 | 48.83558 | 12.26711 | 36396 ft | 416 kts | 327° |
| 2026-04-30 13:01 | 48.88010 | 12.21109 | 36392 ft | 416 kts | 327° |
| 2026-04-30 13:02 | 48.92458 | 12.15496 | 36396 ft | 415 kts | 327° |
| 2026-04-30 13:02 | 48.96899 | 12.09873 | 36399 ft | 416 kts | 327° |
| 2026-04-30 13:03 | 48.99135 | 12.07042 | 36534 ft | 420 kts | 327° |
| 2026-04-30 13:03 | 49.01384 | 12.04189 | 36812 ft | 421 kts | 327° |
| 2026-04-30 13:03 | 49.03639 | 12.01319 | 37145 ft | 420 kts | 326° |
| 2026-04-30 13:03 | 49.05879 | 11.98462 | 37497 ft | 419 kts | 326° |
| 2026-04-30 13:04 | 49.08110 | 11.95612 | 37840 ft | 417 kts | 326° |
| 2026-04-30 13:04 | 49.10293 | 11.92699 | 38171 ft | 417 kts | 324° |
| 2026-04-30 13:04 | 49.12428 | 11.89685 | 38375 ft | 418 kts | 322° |
| 2026-04-30 13:04 | 49.14529 | 11.86615 | 38391 ft | 417 kts | 322° |
| 2026-04-30 13:05 | 49.18687 | 11.80445 | 38393 ft | 416 kts | 322° |
| 2026-04-30 13:06 | 49.24956 | 11.71265 | 38393 ft | 416 kts | 322° |
| 2026-04-30 13:06 | 49.29159 | 11.65173 | 38400 ft | 416 kts | 322° |
| 2026-04-30 13:07 | 49.33362 | 11.59058 | 38400 ft | 416 kts | 322° |
| 2026-04-30 13:07 | 49.37553 | 11.52929 | 38407 ft | 417 kts | 322° |
| 2026-04-30 13:08 | 49.41745 | 11.46784 | 38418 ft | 417 kts | 322° |
| 2026-04-30 13:08 | 49.45937 | 11.40606 | 38418 ft | 417 kts | 322° |
| 2026-04-30 13:09 | 49.50129 | 11.34419 | 38415 ft | 417 kts | 322° |
| 2026-04-30 13:09 | 49.54318 | 11.28234 | 38412 ft | 417 kts | 322° |
| 2026-04-30 13:10 | 49.58504 | 11.22052 | 38406 ft | 417 kts | 322° |
| 2026-04-30 13:10 | 49.62683 | 11.15849 | 38407 ft | 417 kts | 322° |
| 2026-04-30 13:11 | 49.66856 | 11.09619 | 38402 ft | 417 kts | 322° |
| 2026-04-30 13:11 | 49.71033 | 11.03378 | 38404 ft | 417 kts | 322° |
| 2026-04-30 13:12 | 49.75208 | 10.97134 | 38411 ft | 418 kts | 322° |
| 2026-04-30 13:12 | 49.79384 | 10.90868 | 38416 ft | 418 kts | 321° |
| 2026-04-30 13:13 | 49.85644 | 10.81455 | 38416 ft | 418 kts | 321° |
| 2026-04-30 13:14 | 49.91902 | 10.72016 | 38421 ft | 419 kts | 321° |
| 2026-04-30 13:14 | 49.98145 | 10.62531 | 38423 ft | 419 kts | 321° |
| 2026-04-30 13:15 | 50.04394 | 10.53031 | 38415 ft | 418 kts | 321° |
| 2026-04-30 13:16 | 50.08543 | 10.46689 | 38417 ft | 419 kts | 321° |
| 2026-04-30 13:16 | 50.12699 | 10.40322 | 38411 ft | 419 kts | 321° |
| 2026-04-30 13:17 | 50.18928 | 10.30759 | 38416 ft | 419 kts | 321° |
| 2026-04-30 13:18 | 50.25156 | 10.21143 | 38414 ft | 420 kts | 320° |
| 2026-04-30 13:18 | 50.31384 | 10.11497 | 38415 ft | 420 kts | 320° |
| 2026-04-30 13:19 | 50.35537 | 10.05055 | 38413 ft | 421 kts | 320° |
| 2026-04-30 13:19 | 50.39696 | 9.98587 | 38412 ft | 421 kts | 320° |
| 2026-04-30 13:20 | 50.43848 | 9.92111 | 38410 ft | 421 kts | 320° |
| 2026-04-30 13:20 | 50.47999 | 9.85622 | 38408 ft | 421 kts | 320° |
| 2026-04-30 13:21 | 50.52150 | 9.79120 | 38408 ft | 421 kts | 320° |
| 2026-04-30 13:22 | 50.57670 | 9.70448 | 38410 ft | 422 kts | 320° |
| 2026-04-30 13:22 | 50.63884 | 9.60629 | 38409 ft | 422 kts | 320° |
| 2026-04-30 13:23 | 50.70100 | 9.50778 | 38402 ft | 422 kts | 319° |
| 2026-04-30 13:24 | 50.78395 | 9.37536 | 38404 ft | 423 kts | 319° |
| 2026-04-30 13:25 | 50.86648 | 9.24332 | 38409 ft | 423 kts | 319° |
| 2026-04-30 13:26 | 50.96993 | 9.07678 | 38420 ft | 425 kts | 319° |
| 2026-04-30 13:28 | 51.07350 | 8.90882 | 38420 ft | 426 kts | 319° |
| 2026-04-30 13:28 | 51.13568 | 8.80747 | 38417 ft | 426 kts | 318° |
| 2026-04-30 13:29 | 51.21841 | 8.67183 | 38411 ft | 427 kts | 318° |
| 2026-04-30 13:31 | 51.32170 | 8.50152 | 38409 ft | 427 kts | 318° |
| 2026-04-30 13:32 | 51.42494 | 8.33033 | 38411 ft | 428 kts | 317° |
| 2026-04-30 13:33 | 51.50715 | 8.19284 | 38419 ft | 428 kts | 317° |
| 2026-04-30 13:34 | 51.56928 | 8.08854 | 38402 ft | 429 kts | 317° |
| 2026-04-30 13:35 | 51.65143 | 7.95009 | 38400 ft | 429 kts | 317° |
| 2026-04-30 13:36 | 51.73380 | 7.81037 | 38395 ft | 430 kts | 317° |
| 2026-04-30 13:36 | 51.79558 | 7.70478 | 37981 ft | 431 kts | 316° |
| 2026-04-30 13:37 | 51.81613 | 7.66959 | 37687 ft | 432 kts | 316° |
| 2026-04-30 13:37 | 51.85751 | 7.59877 | 37157 ft | 433 kts | 316° |
| 2026-04-30 13:38 | 51.89847 | 7.52842 | 36231 ft | 427 kts | 316° |
| 2026-04-30 13:38 | 51.91873 | 7.49350 | 35730 ft | 424 kts | 316° |
| 2026-04-30 13:38 | 51.95899 | 7.42405 | 34726 ft | 421 kts | 316° |
| 2026-04-30 13:39 | 51.99889 | 7.35506 | 33678 ft | 417 kts | 316° |
| 2026-04-30 13:39 | 52.03831 | 7.28674 | 32692 ft | 412 kts | 316° |
| 2026-04-30 13:40 | 52.05785 | 7.25274 | 32206 ft | 411 kts | 316° |
| 2026-04-30 13:40 | 52.07726 | 7.21889 | 31716 ft | 408 kts | 316° |
| 2026-04-30 13:40 | 52.09656 | 7.18516 | 31236 ft | 406 kts | 316° |
| 2026-04-30 13:40 | 52.11576 | 7.15160 | 30772 ft | 404 kts | 316° |
| 2026-04-30 13:41 | 52.13490 | 7.11818 | 30275 ft | 403 kts | 316° |
| 2026-04-30 13:41 | 52.15393 | 7.08493 | 29805 ft | 399 kts | 316° |
| 2026-04-30 13:41 | 52.17278 | 7.05189 | 29360 ft | 396 kts | 316° |
| 2026-04-30 13:41 | 52.19145 | 7.01909 | 28931 ft | 393 kts | 316° |
| 2026-04-30 13:42 | 52.20998 | 6.98648 | 28502 ft | 391 kts | 315° |
| 2026-04-30 13:42 | 52.22811 | 6.95361 | 28028 ft | 391 kts | 314° |
| 2026-04-30 13:42 | 52.26287 | 6.88487 | 26991 ft | 392 kts | 311° |
| 2026-04-30 13:43 | 52.27982 | 6.84992 | 26476 ft | 392 kts | 311° |
| 2026-04-30 13:43 | 52.29675 | 6.81499 | 25965 ft | 392 kts | 311° |
| 2026-04-30 13:43 | 52.31373 | 6.78026 | 25444 ft | 392 kts | 311° |
| 2026-04-30 13:43 | 52.33088 | 6.74558 | 24938 ft | 392 kts | 311° |
| 2026-04-30 13:44 | 52.34805 | 6.71110 | 24430 ft | 392 kts | 311° |
| 2026-04-30 13:44 | 52.36527 | 6.67656 | 23908 ft | 392 kts | 311° |
| 2026-04-30 13:44 | 52.38247 | 6.64198 | 23339 ft | 391 kts | 311° |
| 2026-04-30 13:44 | 52.39959 | 6.60748 | 22837 ft | 389 kts | 311° |
| 2026-04-30 13:45 | 52.42551 | 6.53181 | 22302 ft | 377 kts | 284° |
| 2026-04-30 13:45 | 52.43003 | 6.49033 | 21952 ft | 373 kts | 280° |
| 2026-04-30 13:45 | 52.43409 | 6.44803 | 21532 ft | 370 kts | 279° |
| 2026-04-30 13:46 | 52.43785 | 6.40693 | 21117 ft | 368 kts | 279° |
| 2026-04-30 13:46 | 52.44160 | 6.36491 | 20709 ft | 366 kts | 279° |
| 2026-04-30 13:46 | 52.44523 | 6.32429 | 20293 ft | 365 kts | 279° |
| 2026-04-30 13:46 | 52.44891 | 6.28325 | 19887 ft | 363 kts | 279° |
| 2026-04-30 13:47 | 52.45258 | 6.24237 | 19492 ft | 362 kts | 279° |
| 2026-04-30 13:47 | 52.45630 | 6.20108 | 19105 ft | 361 kts | 279° |
| 2026-04-30 13:47 | 52.45991 | 6.16098 | 18722 ft | 360 kts | 279° |
| 2026-04-30 13:47 | 52.46356 | 6.12037 | 18312 ft | 358 kts | 279° |
| 2026-04-30 13:48 | 52.46716 | 6.07998 | 17916 ft | 357 kts | 278° |
| 2026-04-30 13:48 | 52.47071 | 6.03986 | 17530 ft | 355 kts | 278° |
| 2026-04-30 13:48 | 52.47424 | 5.99994 | 17155 ft | 353 kts | 278° |
| 2026-04-30 13:48 | 52.47774 | 5.96018 | 16745 ft | 352 kts | 278° |
| 2026-04-30 13:49 | 52.48128 | 5.91973 | 15942 ft | 363 kts | 278° |
| 2026-04-30 13:49 | 52.48486 | 5.87860 | 15334 ft | 364 kts | 278° |
| 2026-04-30 13:49 | 52.48842 | 5.83761 | 14798 ft | 362 kts | 278° |
| 2026-04-30 13:49 | 52.49196 | 5.79675 | 14288 ft | 360 kts | 278° |
| 2026-04-30 13:50 | 52.49547 | 5.75617 | 13737 ft | 358 kts | 278° |
| 2026-04-30 13:50 | 52.50192 | 5.67571 | 12647 ft | 352 kts | 271° |
| 2026-04-30 13:50 | 52.49903 | 5.63642 | 12363 ft | 341 kts | 252° |
| 2026-04-30 13:51 | 52.49240 | 5.59968 | 12243 ft | 330 kts | 250° |
| 2026-04-30 13:51 | 52.48593 | 5.56400 | 12015 ft | 324 kts | 250° |
| 2026-04-30 13:51 | 52.47951 | 5.52881 | 11725 ft | 320 kts | 250° |
| 2026-04-30 13:51 | 52.47309 | 5.49395 | 11405 ft | 318 kts | 250° |
| 2026-04-30 13:52 | 52.46667 | 5.45931 | 11069 ft | 317 kts | 250° |
| 2026-04-30 13:52 | 52.46023 | 5.42487 | 10725 ft | 315 kts | 249° |
| 2026-04-30 13:52 | 52.45383 | 5.39071 | 10389 ft | 313 kts | 249° |
| 2026-04-30 13:52 | 52.44749 | 5.35675 | 10034 ft | 311 kts | 249° |
| 2026-04-30 13:53 | 52.44116 | 5.32288 | 9659 ft | 309 kts | 249° |
| 2026-04-30 13:53 | 52.43490 | 5.28937 | 9315 ft | 306 kts | 249° |
| 2026-04-30 13:53 | 52.42866 | 5.25607 | 8968 ft | 304 kts | 249° |
| 2026-04-30 13:53 | 52.42246 | 5.22303 | 8600 ft | 302 kts | 249° |
| 2026-04-30 13:54 | 52.41629 | 5.19022 | 8253 ft | 300 kts | 249° |
| 2026-04-30 13:54 | 52.41014 | 5.15760 | 8008 ft | 300 kts | 249° |
| 2026-04-30 13:54 | 52.40397 | 5.12503 | 7760 ft | 299 kts | 249° |
| 2026-04-30 13:54 | 52.39782 | 5.09258 | 7505 ft | 298 kts | 249° |
| 2026-04-30 13:55 | 52.39171 | 5.06038 | 7359 ft | 296 kts | 249° |
| 2026-04-30 13:55 | 52.38560 | 5.02825 | 7352 ft | 296 kts | 248° |
| 2026-04-30 13:55 | 52.37945 | 4.99605 | 7355 ft | 296 kts | 248° |
| 2026-04-30 13:55 | 52.37329 | 4.96386 | 7356 ft | 296 kts | 248° |
| 2026-04-30 13:56 | 52.36711 | 4.93167 | 7357 ft | 296 kts | 248° |
| 2026-04-30 13:56 | 52.36122 | 4.89943 | 7350 ft | 298 kts | 253° |
| 2026-04-30 13:56 | 52.35767 | 4.86639 | 7349 ft | 299 kts | 257° |
| 2026-04-30 13:56 | 52.35451 | 4.83242 | 7357 ft | 298 kts | 258° |
| 2026-04-30 13:57 | 52.35145 | 4.79883 | 7356 ft | 299 kts | 258° |
| 2026-04-30 13:57 | 52.34840 | 4.76524 | 7354 ft | 299 kts | 258° |
| 2026-04-30 13:57 | 52.34533 | 4.73164 | 7331 ft | 298 kts | 258° |
| 2026-04-30 13:57 | 52.34230 | 4.69835 | 6981 ft | 295 kts | 257° |
| 2026-04-30 13:58 | 52.33938 | 4.66559 | 6597 ft | 294 kts | 257° |
| 2026-04-30 13:58 | 52.33359 | 4.59952 | 5769 ft | 288 kts | 255° |
| 2026-04-30 13:58 | 52.32771 | 4.56929 | 5599 ft | 271 kts | 243° |
| 2026-04-30 13:59 | 52.32109 | 4.54126 | 5469 ft | 258 kts | 243° |
| 2026-04-30 13:59 | 52.31487 | 4.51469 | 5253 ft | 251 kts | 242° |
| 2026-04-30 13:59 | 52.30860 | 4.48790 | 4926 ft | 247 kts | 240° |
| 2026-04-30 13:59 | 52.29874 | 4.46664 | 4563 ft | 228 kts | 207° |
| 2026-04-30 14:00 | 52.28963 | 4.45954 | 4311 ft | 215 kts | 185° |
| 2026-04-30 14:00 | 52.26239 | 4.46927 | 3655 ft | 201 kts | 153° |
| 2026-04-30 14:00 | 52.24987 | 4.47817 | 3526 ft | 192 kts | 153° |
| 2026-04-30 14:01 | 52.23898 | 4.48596 | 3408 ft | 185 kts | 153° |
| 2026-04-30 14:01 | 52.22883 | 4.49719 | 3262 ft | 172 kts | 125° |
| 2026-04-30 14:01 | 52.22550 | 4.51543 | 3141 ft | 169 kts | 97° |
| 2026-04-30 14:01 | 52.22529 | 4.53446 | 2964 ft | 167 kts | 92° |
| 2026-04-30 14:02 | 52.22524 | 4.55343 | 2737 ft | 168 kts | 92° |
| 2026-04-30 14:02 | 52.22617 | 4.57234 | 2541 ft | 170 kts | 75° |
| 2026-04-30 14:02 | 52.23215 | 4.58977 | 2206 ft | 181 kts | 60° |
| 2026-04-30 14:02 | 52.23894 | 4.60720 | 1904 ft | 179 kts | 62° |
| 2026-04-30 14:03 | 52.24548 | 4.62407 | 1652 ft | 172 kts | 62° |
| 2026-04-30 14:03 | 52.25174 | 4.64024 | 1424 ft | 166 kts | 62° |
| 2026-04-30 14:03 | 52.25771 | 4.65570 | 1211 ft | 156 kts | 62° |
| 2026-04-30 14:03 | 52.26327 | 4.67010 | 1000 ft | 144 kts | 63° |
| 2026-04-30 14:04 | 52.26839 | 4.68337 | 814 ft | 133 kts | 62° |
| 2026-04-30 14:04 | 52.27323 | 4.69593 | 631 ft | 129 kts | 62° |
| 2026-04-30 14:04 | 52.27798 | 4.70831 | 437 ft | 128 kts | 63° |
| 2026-04-30 14:04 | 52.28269 | 4.72047 | 281 ft | 127 kts | 65° |
| 2026-04-30 14:05 | 52.28738 | 4.73269 | 109 ft | 127 kts | 63° |
| 2026-04-30 14:05 | 52.29203 | 4.74476 | 3 ft | 119 kts | 62° |
| 2026-04-30 14:05 | 52.29572 | 4.75448 | -2 ft | 82 kts | 58° |
| 2026-04-30 14:05 | 52.29830 | 4.76119 | -4 ft | 57 kts | 57° |
| 2026-04-30 14:06 | 52.29982 | 4.76478 | -2 ft | 26 kts | 42° |
| 2026-04-30 14:06 | 52.30237 | 4.76719 | -1 ft | 16 kts | 27° |
| 2026-04-30 14:07 | 52.30373 | 4.76980 | -1 ft | 18 kts | 60° |
| 2026-04-30 14:07 | 52.30441 | 4.77157 | -1 ft | 19 kts | 58° |
| 2026-04-30 14:07 | 52.30515 | 4.77349 | -1 ft | 21 kts | 58° |
| 2026-04-30 14:08 | 52.30761 | 4.77597 | -1 ft | 25 kts | 3° |
| 2026-04-30 14:08 | 52.30942 | 4.77613 | -1 ft | 27 kts | 3° |
| 2026-04-30 14:08 | 52.31335 | 4.77649 | -1 ft | 25 kts | 3° |
| 2026-04-30 14:09 | 52.31496 | 4.77582 | -1 ft | 24 kts | 316° |
| 2026-04-30 14:09 | 52.31576 | 4.77368 | -1 ft | 22 kts | 275° |
| 2026-04-30 14:09 | 52.31562 | 4.76915 | -1 ft | 19 kts | 266° |
| 2026-04-30 14:10 | 52.31554 | 4.76701 | -1 ft | 19 kts | 267° |
| 2026-04-30 14:10 | 52.31547 | 4.76493 | -1 ft | 18 kts | 266° |
| 2026-04-30 14:10 | 52.31541 | 4.76302 | -1 ft | 16 kts | 266° |
| 2026-04-30 14:10 | 52.31535 | 4.76132 | -1 ft | 14 kts | 267° |
| 2026-04-30 14:11 | 52.31529 | 4.75979 | -1 ft | 13 kts | 266° |
| 2026-04-30 14:11 | 52.31524 | 4.75823 | -1 ft | 14 kts | 267° |
| 2026-04-30 14:11 | 52.31518 | 4.75659 | -1 ft | 14 kts | 266° |
| 2026-04-30 14:11 | 52.31512 | 4.75508 | -1 ft | 12 kts | 262° |
| 2026-04-30 14:12 | 52.31452 | 4.75469 | -1 ft | 10 kts | 177° |
| 2026-04-30 14:12 | 52.31377 | 4.75475 | -1 ft | 12 kts | 177° |
| 2026-04-30 14:12 | 52.31291 | 4.75483 | -1 ft | 13 kts | 177° |
| 2026-04-30 14:12 | 52.31203 | 4.75491 | -1 ft | 12 kts | 176° |
| 2026-04-30 14:13 | 52.31134 | 4.75505 | -1 ft | 8 kts | 160° |
| 2026-04-30 14:13 | 52.31096 | 4.75542 | -1 ft | 4 kts | 148° |
| 2026-04-30 14:13 | 52.31080 | 4.75558 | -1 ft | 2 kts | 148° |
| 2026-04-30 14:13 | 52.31072 | 4.75566 | -1 ft | 1 kts | 148° |
| 2026-04-30 14:14 | 52.31068 | 4.75570 | -1 ft | 0 kts | 148° |